Time;durP1;ratioP1;P1;durP2;ratioP2;P2;SDS_P1;SDS_P2;PMS_P1;PMS_P2;Temp;Humidity;BMP_temperature;BMP_pressure;BME280_temperature;BME280_humidity;BME280_pressure;Samples;Min_cycle;Max_cycle;Signal;HPM_P1;HPM_P2
2022/01/14 00:02:10;;;;;;;62.53;27.80;;;2.90;90.60;;;;;;4954643;29;20926;-74
2022/01/14 00:04:37;;;;;;;67.97;29.43;;;2.90;90.50;;;;;;4954378;29;20440;-74
2022/01/14 00:07:03;;;;;;;66.15;29.63;;;2.70;88.60;;;;;;4954433;28;20740;-74
2022/01/14 00:09:30;;;;;;;70.80;30.00;;;2.50;90.70;;;;;;4955085;29;20538;-73
2022/01/14 00:11:58;;;;;;;68.15;32.20;;;2.40;92.30;;;;;;4955696;29;20872;-72
2022/01/14 00:14:41;;;;;;;67.25;31.45;;;2.30;93.70;;;;;;4954884;29;20422;-73
2022/01/14 00:17:12;;;;;;;72.18;32.25;;;2.20;95.10;;;;;;4962864;28;20445;-75
2022/01/14 00:19:39;;;;;;;66.60;29.10;;;2.20;96.40;;;;;;4954936;28;20406;-74
2022/01/14 00:22:09;;;;;;;83.55;30.65;;;2.20;96.30;;;;;;4955689;29;20401;-74
2022/01/14 00:35:19;;;;;;;81.25;33.88;;;2.00;98.80;;;;;;4961952;28;20771;-74
2022/01/14 00:37:44;;;;;;;67.80;33.30;;;2.00;99.50;;;;;;4960178;28;20406;-73
2022/01/14 00:40:10;;;;;;;93.80;35.10;;;2.00;99.90;;;;;;4967282;28;20428;-75
2022/01/14 00:42:36;;;;;;;74.97;35.40;;;2.10;99.90;;;;;;4967856;28;20405;-74
2022/01/14 00:45:07;;;;;;;76.65;33.95;;;2.10;99.90;;;;;;4969876;28;20386;-74
2022/01/14 00:47:37;;;;;;;91.75;35.38;;;2.10;99.90;;;;;;4966312;28;20410;-76
2022/01/14 00:50:08;;;;;;;85.95;33.70;;;2.00;99.90;;;;;;4953210;28;20401;-75
2022/01/14 00:52:36;;;;;;;64.25;31.73;;;2.00;99.90;;;;;;4952105;29;20440;-75
2022/01/14 00:55:02;;;;;;;71.45;32.75;;;2.10;99.60;;;;;;4957761;28;20424;-75
2022/01/14 00:59:14;;;;;;;89.45;35.17;;;2.10;99.20;;;;;;4952231;29;20952;-74
2022/01/14 01:00:14;;;;;;;65.18;31.98;;;2.10;99.00;;;;;;4953345;28;20401;-76
2022/01/14 01:02:40;;;;;;;80.40;32.50;;;2.20;97.70;;;;;;4954386;29;20402;-75
2022/01/14 01:05:05;;;;;;;69.17;33.57;;;2.20;95.70;;;;;;4954717;28;20413;-77
2022/01/14 01:07:31;;;;;;;71.35;34.92;;;2.20;95.70;;;;;;4958613;29;20429;-76
2022/01/14 01:09:57;;;;;;;68.65;33.78;;;2.20;95.60;;;;;;4959110;29;20417;-75
2022/01/14 01:12:51;;;;;;;70.30;32.90;;;2.30;93.90;;;;;;4964353;29;20429;-74
2022/01/14 01:15:12;;;;;;;71.88;33.08;;;2.30;92.60;;;;;;4964159;29;20413;-76
2022/01/14 01:17:38;;;;;;;68.38;34.13;;;2.20;92.30;;;;;;4970686;29;20422;-75
2022/01/14 01:20:39;;;;;;;66.50;32.10;;;2.20;92.70;;;;;;4965709;29;20387;-74
2022/01/14 01:22:57;;;;;;;68.25;33.42;;;2.10;94.00;;;;;;4952829;28;20413;-75
2022/01/14 01:25:29;;;;;;;69.83;33.73;;;2.20;92.30;;;;;;4949163;28;20388;-75
2022/01/14 01:27:55;;;;;;;68.50;33.23;;;2.10;93.30;;;;;;4934685;29;20403;-76
2022/01/14 01:32:58;;;;;;;62.75;33.20;;;2.10;93.50;;;;;;4948324;29;20431;-76
2022/01/14 01:35:24;;;;;;;68.68;32.83;;;2.10;94.00;;;;;;4951939;29;20747;-76
2022/01/14 01:37:51;;;;;;;67.40;32.90;;;2.20;94.80;;;;;;4953228;29;20497;-76
2022/01/14 01:40:19;;;;;;;68.90;33.38;;;2.20;95.00;;;;;;4959916;28;20428;-77
2022/01/14 01:42:46;;;;;;;64.55;34.20;;;2.10;95.70;;;;;;4952107;29;20405;-76
2022/01/14 01:45:15;;;;;;;63.10;31.67;;;2.10;95.40;;;;;;4952257;28;20958;-75
2022/01/14 01:47:42;;;;;;;63.45;31.90;;;2.10;94.60;;;;;;4953272;28;20389;-76
2022/01/14 01:50:14;;;;;;;68.72;33.20;;;2.00;93.90;;;;;;4953377;29;20397;-76
2022/01/14 01:52:40;;;;;;;62.15;32.13;;;2.00;94.80;;;;;;4933766;29;20415;-75
2022/01/14 01:55:06;;;;;;;59.70;30.50;;;2.00;95.30;;;;;;4966417;28;20885;-76
2022/01/14 01:57:32;;;;;;;67.85;32.00;;;2.00;95.50;;;;;;4953086;29;20394;-74
2022/01/14 01:59:58;;;;;;;57.00;29.08;;;1.90;94.70;;;;;;4948414;29;20411;-76
2022/01/14 02:02:25;;;;;;;58.22;30.25;;;1.90;95.80;;;;;;4948454;29;20430;-75
2022/01/14 02:04:50;;;;;;;59.60;30.70;;;1.90;94.90;;;;;;4952917;29;20409;-74
2022/01/14 02:07:16;;;;;;;59.53;29.58;;;1.90;95.50;;;;;;4952647;29;20406;-74
2022/01/14 02:09:42;;;;;;;59.73;30.53;;;2.00;93.60;;;;;;4952708;28;20914;-75
2022/01/14 02:12:10;;;;;;;61.00;30.87;;;1.90;93.60;;;;;;4952859;29;20393;-75
2022/01/14 02:22:56;;;;;;;60.25;30.35;;;1.90;95.00;;;;;;4954131;29;20398;-74
2022/01/14 02:25:30;;;;;;;59.33;29.80;;;1.90;95.50;;;;;;4953332;29;20393;-75
2022/01/14 02:28:07;;;;;;;61.08;31.35;;;1.90;96.40;;;;;;4952871;29;20393;-74
2022/01/14 02:30:39;;;;;;;59.83;29.40;;;2.00;96.30;;;;;;4952602;28;20886;-73
2022/01/14 02:33:05;;;;;;;62.03;31.05;;;2.00;96.50;;;;;;4950457;29;20414;-74
2022/01/14 02:35:32;;;;;;;63.30;29.85;;;2.10;96.20;;;;;;4952687;29;20390;-74
2022/01/14 02:37:58;;;;;;;60.13;29.40;;;2.10;95.80;;;;;;4952981;29;20909;-76
2022/01/14 02:40:24;;;;;;;66.47;30.27;;;2.10;95.80;;;;;;4958853;29;20807;-74
2022/01/14 02:42:50;;;;;;;59.43;29.23;;;2.20;96.20;;;;;;4956569;28;20891;-76
2022/01/14 02:45:17;;;;;;;59.42;29.77;;;2.30;95.80;;;;;;4954844;29;20408;-74
2022/01/14 02:47:44;;;;;;;57.78;28.65;;;2.30;95.40;;;;;;4955917;29;20759;-74
2022/01/14 02:50:14;;;;;;;56.22;28.33;;;2.40;95.10;;;;;;4956169;28;20423;-75
2022/01/14 02:52:43;;;;;;;57.10;27.07;;;2.50;94.30;;;;;;4955945;28;20433;-75
2022/01/14 02:55:20;;;;;;;57.30;28.42;;;2.50;93.00;;;;;;4956497;28;20401;-75
2022/01/14 02:57:49;;;;;;;55.57;28.73;;;2.50;91.80;;;;;;4955861;29;20890;-74
2022/01/14 03:00:16;;;;;;;55.03;28.00;;;2.60;91.00;;;;;;4956473;29;20390;-73
2022/01/14 03:02:45;;;;;;;58.15;28.70;;;2.60;90.40;;;;;;4956106;28;20422;-74
2022/01/14 03:05:11;;;;;;;57.25;29.00;;;2.60;90.40;;;;;;4957448;28;20483;-75
2022/01/14 03:07:39;;;;;;;56.60;27.92;;;2.60;90.40;;;;;;4956298;29;20898;-74
2022/01/14 03:10:06;;;;;;;57.40;28.52;;;2.60;90.20;;;;;;4955367;28;20418;-74
2022/01/14 03:12:32;;;;;;;55.72;28.70;;;2.60;89.70;;;;;;4955202;28;20891;-75
2022/01/14 03:14:57;;;;;;;51.00;27.08;;;2.60;89.00;;;;;;4955613;29;20526;-74
2022/01/14 03:17:23;;;;;;;54.80;27.13;;;2.60;88.40;;;;;;4955500;28;20469;-75
2022/01/14 03:19:49;;;;;;;54.80;26.10;;;2.50;87.40;;;;;;4955996;29;20393;-74
2022/01/14 03:22:20;;;;;;;53.17;27.50;;;2.50;86.20;;;;;;4955695;28;20397;-75
2022/01/14 03:27:12;;;;;;;49.67;26.07;;;2.40;87.10;;;;;;4955482;29;20406;-74
2022/01/14 03:29:38;;;;;;;56.83;27.52;;;2.40;85.40;;;;;;4954921;29;20397;-74
2022/01/14 03:32:04;;;;;;;57.40;26.63;;;2.40;85.90;;;;;;4955669;29;20414;-75
2022/01/14 03:34:30;;;;;;;58.80;27.40;;;2.30;86.80;;;;;;4955828;29;20464;-74
2022/01/14 03:36:56;;;;;;;54.80;26.92;;;2.30;87.20;;;;;;4955387;29;20436;-74
2022/01/14 03:39:22;;;;;;;55.00;27.75;;;2.20;87.40;;;;;;4963614;28;20432;-76
2022/01/14 03:41:48;;;;;;;62.83;26.40;;;2.20;87.40;;;;;;4974549;28;20397;-75
2022/01/14 03:44:14;;;;;;;55.63;26.60;;;2.10;87.50;;;;;;4973446;28;20396;-76
2022/01/14 03:46:40;;;;;;;53.92;26.48;;;2.10;88.50;;;;;;4962170;28;20394;-74
2022/01/14 03:49:06;;;;;;;56.35;27.33;;;2.00;87.90;;;;;;4955241;29;21073;-75
2022/01/14 03:51:31;;;;;;;54.28;25.55;;;2.00;88.80;;;;;;4955173;29;20398;-76
2022/01/14 03:53:57;;;;;;;51.70;25.83;;;1.90;90.30;;;;;;4960036;28;20492;-75
2022/01/14 03:56:23;;;;;;;57.07;27.33;;;2.00;89.90;;;;;;4954990;29;20397;-75
2022/01/14 03:58:49;;;;;;;58.65;26.67;;;1.90;90.60;;;;;;4955391;29;20400;-74
2022/01/14 04:01:15;;;;;;;55.50;27.20;;;1.90;90.10;;;;;;4955215;29;20857;-74
2022/01/14 04:03:42;;;;;;;53.73;25.90;;;1.80;89.10;;;;;;4954929;29;20410;-76
2022/01/14 04:06:10;;;;;;;59.20;26.57;;;1.80;89.40;;;;;;4955607;28;20493;-74
2022/01/14 04:08:37;;;;;;;58.30;27.30;;;1.70;89.10;;;;;;4956809;29;20478;-76
2022/01/14 04:11:03;;;;;;;56.30;26.80;;;1.70;88.20;;;;;;4962659;28;20489;-74
2022/01/14 04:13:45;;;;;;;57.50;26.80;;;1.60;88.80;;;;;;4960772;28;20445;-74
2022/01/14 04:16:12;;;;;;;53.35;26.25;;;1.50;90.20;;;;;;4965290;28;20405;-75
2022/01/14 04:18:38;;;;;;;57.78;27.52;;;1.40;90.80;;;;;;4961603;29;20468;-74
2022/01/14 04:21:04;;;;;;;57.97;27.33;;;1.40;91.90;;;;;;4964814;29;20440;-72
2022/01/14 04:23:30;;;;;;;55.45;25.60;;;1.30;93.20;;;;;;4956649;29;20496;-75
2022/01/14 04:25:56;;;;;;;53.50;26.10;;;1.30;93.80;;;;;;4954774;29;20398;-73
2022/01/14 04:28:25;;;;;;;58.57;28.43;;;1.30;94.60;;;;;;4953510;29;20752;-73
2022/01/14 04:30:54;;;;;;;53.45;26.58;;;1.20;94.20;;;;;;4954046;28;20775;-74
2022/01/14 04:33:23;;;;;;;53.17;27.10;;;1.10;95.60;;;;;;4950404;29;20440;-74
2022/01/14 04:35:49;;;;;;;63.33;29.42;;;1.10;96.60;;;;;;4954604;29;20405;-73
2022/01/14 04:38:16;;;;;;;61.00;29.02;;;1.10;97.30;;;;;;4954526;28;20508;-75
2022/01/14 04:40:42;;;;;;;67.90;29.30;;;1.00;97.70;;;;;;4966173;28;20480;-75
2022/01/14 04:43:08;;;;;;;61.88;28.23;;;0.90;98.00;;;;;;4956044;29;20846;-75
2022/01/14 04:48:04;;;;;;;56.17;27.92;;;0.90;99.80;;;;;;4957805;28;20394;-75
2022/01/14 04:50:30;;;;;;;56.17;28.05;;;0.90;99.90;;;;;;4958203;28;20759;-76
2022/01/14 04:52:55;;;;;;;63.87;27.50;;;0.90;99.90;;;;;;4959546;28;20405;-74
2022/01/14 04:55:23;;;;;;;55.88;27.38;;;0.90;99.90;;;;;;4975947;28;20393;-74
2022/01/14 04:57:50;;;;;;;53.95;26.98;;;0.90;99.90;;;;;;4971278;28;20879;-73
2022/01/14 05:00:19;;;;;;;53.40;26.90;;;0.90;99.90;;;;;;4954849;29;20406;-75
2022/01/14 05:02:45;;;;;;;58.55;27.35;;;0.90;99.90;;;;;;4956074;29;20403;-75
2022/01/14 05:05:11;;;;;;;58.50;26.63;;;0.90;99.90;;;;;;4956375;29;20420;-74
2022/01/14 05:07:37;;;;;;;52.95;25.73;;;0.90;99.90;;;;;;4954912;28;20448;-74
2022/01/14 05:12:35;;;;;;;55.20;25.40;;;0.90;99.90;;;;;;4960394;28;20402;-74
2022/01/14 05:15:02;;;;;;;53.42;24.52;;;0.90;99.90;;;;;;4957807;29;20425;-73
2022/01/14 05:17:28;;;;;;;51.00;24.80;;;1.00;99.90;;;;;;4954680;28;20392;-74
2022/01/14 05:19:57;;;;;;;48.80;25.17;;;1.00;99.90;;;;;;4955063;28;20486;-73
2022/01/14 05:22:23;;;;;;;55.20;25.10;;;1.00;99.90;;;;;;4956623;28;20890;-74
2022/01/14 05:24:49;;;;;;;54.53;25.70;;;0.90;99.90;;;;;;4973309;29;20422;-73
2022/01/14 05:27:15;;;;;;;53.25;23.70;;;0.90;99.90;;;;;;4980854;28;20571;-74
2022/01/14 05:29:40;;;;;;;51.20;23.33;;;1.00;99.90;;;;;;4970378;29;20838;-74
2022/01/14 05:32:12;;;;;;;48.70;24.23;;;1.00;99.90;;;;;;4953816;28;20472;-75
2022/01/14 05:34:38;;;;;;;54.33;24.63;;;1.00;99.90;;;;;;4953736;28;20414;-75
2022/01/14 05:37:04;;;;;;;56.28;25.10;;;0.90;99.90;;;;;;4953062;28;20623;-74
2022/01/14 05:39:30;;;;;;;49.38;23.35;;;0.90;99.90;;;;;;4953256;28;20429;-76
2022/01/14 05:41:57;;;;;;;55.53;26.02;;;0.90;99.90;;;;;;4953700;29;20382;-75
2022/01/14 05:44:24;;;;;;;56.28;23.45;;;0.90;99.90;;;;;;4953870;28;20416;-74
2022/01/14 05:46:50;;;;;;;48.03;23.88;;;0.90;99.90;;;;;;4952737;29;20401;-75
2022/01/14 05:49:17;;;;;;;51.20;23.02;;;0.90;99.90;;;;;;4953786;29;20910;-74
2022/01/14 05:51:43;;;;;;;57.75;24.38;;;1.00;99.90;;;;;;4953751;29;20417;-74
2022/01/14 05:54:09;;;;;;;59.60;24.77;;;1.00;99.90;;;;;;4965732;28;20409;-73
2022/01/14 05:56:34;;;;;;;53.28;24.92;;;1.00;99.90;;;;;;4952902;28;20396;-74
2022/01/14 05:59:00;;;;;;;56.70;25.37;;;1.00;99.90;;;;;;4952319;28;20457;-73
2022/01/14 06:01:25;;;;;;;51.53;23.10;;;1.10;99.90;;;;;;4948567;28;20417;-73
2022/01/14 06:03:51;;;;;;;48.92;23.75;;;1.20;99.90;;;;;;4934675;29;20907;-74
2022/01/14 06:06:17;;;;;;;50.00;24.55;;;1.20;99.90;;;;;;4944782;29;20405;-74
2022/01/14 06:08:46;;;;;;;55.00;25.33;;;1.30;99.90;;;;;;4956576;29;20405;-75
2022/01/14 06:11:12;;;;;;;55.67;25.77;;;1.40;99.90;;;;;;4963729;29;20413;-73
2022/01/14 06:13:38;;;;;;;53.22;25.10;;;1.40;99.90;;;;;;4957302;28;20414;-75
2022/01/14 06:16:03;;;;;;;46.63;23.17;;;1.40;99.90;;;;;;4965339;28;20401;-75
2022/01/14 06:18:29;;;;;;;46.27;22.53;;;1.50;99.90;;;;;;4966654;28;20490;-75
2022/01/14 06:20:55;;;;;;;48.85;23.05;;;1.60;99.90;;;;;;4968915;29;20875;-74
2022/01/14 06:23:20;;;;;;;53.85;24.42;;;1.60;99.90;;;;;;4969125;29;20398;-75
2022/01/14 06:25:46;;;;;;;45.00;23.88;;;1.60;99.90;;;;;;4969999;29;20428;-74
2022/01/14 06:28:11;;;;;;;50.47;23.20;;;1.50;99.90;;;;;;4964221;29;20784;-75
2022/01/14 06:30:37;;;;;;;48.83;23.88;;;1.50;99.90;;;;;;4959087;28;20440;-76
2022/01/14 06:33:03;;;;;;;49.97;23.23;;;1.50;99.90;;;;;;4956392;29;20441;-75
2022/01/14 06:35:28;;;;;;;50.95;24.60;;;1.40;99.90;;;;;;4958008;29;20417;-75
2022/01/14 06:37:57;;;;;;;50.50;23.80;;;1.50;99.90;;;;;;4959679;29;20409;-75
2022/01/14 06:40:23;;;;;;;47.40;23.83;;;1.60;99.90;;;;;;4959455;29;20421;-74
2022/01/14 06:42:49;;;;;;;54.63;25.35;;;1.60;99.90;;;;;;4958678;29;20402;-75
2022/01/14 06:45:15;;;;;;;50.05;22.80;;;1.60;99.90;;;;;;4970736;28;20396;-76
2022/01/14 06:47:41;;;;;;;49.47;23.02;;;1.60;99.90;;;;;;4961540;29;20453;-73
2022/01/14 06:50:07;;;;;;;51.33;23.35;;;1.60;99.90;;;;;;4965138;29;20414;-73
2022/01/14 06:52:32;;;;;;;54.03;24.40;;;1.70;99.90;;;;;;4959566;29;20496;-73
2022/01/14 06:54:58;;;;;;;46.83;23.40;;;1.80;99.90;;;;;;4968981;28;20425;-73
2022/01/14 06:57:24;;;;;;;46.72;22.10;;;1.80;99.10;;;;;;4967263;28;20608;-76
2022/01/14 06:59:50;;;;;;;51.33;24.50;;;1.90;97.60;;;;;;4965345;29;20777;-75
2022/01/14 07:02:15;;;;;;;48.45;23.10;;;1.90;97.70;;;;;;4958274;29;20460;-75
2022/01/14 07:04:41;;;;;;;54.80;25.30;;;1.90;97.50;;;;;;4958420;29;20406;-76
2022/01/14 07:07:07;;;;;;;46.87;24.23;;;2.00;95.50;;;;;;4956817;29;20403;-75
2022/01/14 07:09:34;;;;;;;59.00;28.00;;;2.10;95.00;;;;;;4968328;29;20417;-75
2022/01/14 07:12:02;;;;;;;48.00;22.42;;;2.00;93.80;;;;;;4974212;29;20390;-75
2022/01/14 07:14:29;;;;;;;45.55;22.73;;;2.00;93.80;;;;;;4968944;29;20414;-75
2022/01/14 07:16:56;;;;;;;46.88;22.40;;;2.00;93.40;;;;;;4966256;29;20462;-74
2022/01/14 07:19:22;;;;;;;48.67;23.92;;;2.00;93.50;;;;;;4976943;28;20397;-74
2022/01/14 07:21:48;;;;;;;47.13;24.27;;;2.00;94.00;;;;;;4968303;29;20429;-75
2022/01/14 07:24:14;;;;;;;47.85;23.38;;;2.00;95.00;;;;;;4958400;29;20396;-74
2022/01/14 07:26:41;;;;;;;48.50;22.73;;;2.10;95.80;;;;;;4956703;29;20537;-76
2022/01/14 07:29:06;;;;;;;49.78;25.20;;;2.10;95.50;;;;;;4957762;28;20394;-76
2022/01/14 07:31:32;;;;;;;49.70;24.27;;;2.20;95.50;;;;;;4955200;28;20404;-75
2022/01/14 07:33:58;;;;;;;51.95;27.70;;;2.20;95.80;;;;;;4956132;29;20509;-75
2022/01/14 07:36:24;;;;;;;53.92;25.48;;;2.30;95.10;;;;;;4956315;28;20832;-75
2022/01/14 07:38:50;;;;;;;43.70;23.23;;;2.40;92.70;;;;;;4956823;28;20919;-75
2022/01/14 07:41:15;;;;;;;46.95;23.55;;;2.50;92.10;;;;;;4956236;29;20393;-75
2022/01/14 07:43:46;;;;;;;42.88;22.25;;;2.50;87.60;;;;;;4956535;29;20401;-75
2022/01/14 07:46:12;;;;;;;44.22;22.45;;;2.50;87.00;;;;;;4956378;29;20394;-74
2022/01/14 07:48:37;;;;;;;43.37;23.30;;;2.50;88.20;;;;;;4955451;29;20811;-74
2022/01/14 07:51:03;;;;;;;56.67;25.42;;;2.60;86.90;;;;;;4956478;28;20413;-76
2022/01/14 07:53:29;;;;;;;54.15;27.00;;;2.70;86.00;;;;;;4961721;28;20419;-75
2022/01/14 07:55:55;;;;;;;74.97;34.73;;;2.70;85.80;;;;;;4962729;28;20737;-74
2022/01/14 07:58:21;;;;;;;106.07;46.63;;;2.80;86.20;;;;;;4955375;29;20864;-75
2022/01/14 08:00:46;;;;;;;146.00;52.47;;;2.90;89.00;;;;;;4956057;29;20488;-74
2022/01/14 08:03:12;;;;;;;142.75;58.47;;;3.00;89.80;;;;;;4955584;29;20905;-75
2022/01/14 08:05:38;;;;;;;137.02;51.80;;;3.20;86.70;;;;;;4957441;29;20489;-76
2022/01/14 08:08:05;;;;;;;137.20;50.83;;;3.20;85.80;;;;;;4938701;28;20682;-74
2022/01/14 08:10:32;;;;;;;129.32;50.28;;;3.10;86.50;;;;;;4947008;29;20420;-75
2022/01/14 08:12:58;;;;;;;127.30;44.80;;;3.10;87.90;;;;;;4958053;29;20591;-74
2022/01/14 08:15:24;;;;;;;107.93;40.95;;;3.10;89.00;;;;;;4955679;28;20942;-75
2022/01/14 08:17:50;;;;;;;106.07;39.55;;;3.10;88.10;;;;;;4956286;28;20417;-74
2022/01/14 08:20:15;;;;;;;93.20;36.40;;;3.10;89.20;;;;;;4956956;29;20394;-74
2022/01/14 08:22:41;;;;;;;96.20;37.63;;;3.10;89.40;;;;;;4955730;28;20412;-74
2022/01/14 08:25:09;;;;;;;91.47;37.70;;;3.10;89.40;;;;;;4954409;29;20410;-74
2022/01/14 08:27:35;;;;;;;114.47;39.05;;;3.20;90.50;;;;;;4954773;29;20410;-72
2022/01/14 08:30:00;;;;;;;101.78;41.20;;;3.20;89.20;;;;;;4954079;29;20433;-72
2022/01/14 08:32:26;;;;;;;101.53;38.27;;;3.10;89.60;;;;;;4952668;29;20538;-73
2022/01/14 08:34:52;;;;;;;98.47;38.40;;;3.20;89.60;;;;;;4955921;29;20405;-73
2022/01/14 08:37:17;;;;;;;93.63;39.20;;;3.20;89.80;;;;;;4955395;29;20484;-75
2022/01/14 08:39:44;;;;;;;106.82;39.95;;;3.20;87.60;;;;;;4960634;28;20429;-74
2022/01/14 08:42:11;;;;;;;88.82;37.22;;;3.30;85.90;;;;;;4954855;28;20414;-74
2022/01/14 08:44:36;;;;;;;96.07;36.42;;;3.30;85.70;;;;;;4954874;28;20521;-76
2022/01/14 08:47:09;;;;;;;93.17;36.20;;;3.30;86.90;;;;;;4954022;29;20390;-76
2022/01/14 08:49:38;;;;;;;98.60;37.03;;;3.40;85.80;;;;;;4954140;28;20401;-74
2022/01/14 08:52:04;;;;;;;101.18;36.20;;;3.40;85.60;;;;;;4953946;28;20414;-75
2022/01/14 08:54:29;;;;;;;81.55;33.72;;;3.40;83.90;;;;;;4968856;28;21024;-75
2022/01/14 08:56:55;;;;;;;74.23;34.07;;;3.50;83.00;;;;;;4974341;28;20746;-76
2022/01/14 08:59:20;;;;;;;70.33;31.97;;;3.60;82.80;;;;;;4957632;28;20887;-74
2022/01/14 09:01:47;;;;;;;76.43;32.60;;;3.60;80.70;;;;;;4953784;28;20473;-74
2022/01/14 09:04:12;;;;;;;84.20;33.05;;;3.50;80.50;;;;;;4954342;29;20410;-76
2022/01/14 09:06:38;;;;;;;91.85;35.80;;;3.60;80.90;;;;;;4953213;29;20958;-74
2022/01/14 09:09:04;;;;;;;100.33;39.53;;;3.50;81.40;;;;;;4951316;28;20441;-73
2022/01/14 09:11:29;;;;;;;103.40;40.20;;;3.50;81.70;;;;;;4964628;28;20396;-73
2022/01/14 09:13:55;;;;;;;105.83;40.43;;;3.60;82.10;;;;;;4949157;29;20775;-73
2022/01/14 09:16:20;;;;;;;76.30;34.03;;;3.60;82.90;;;;;;4948200;28;20407;-73
2022/01/14 09:18:49;;;;;;;77.03;32.40;;;4.10;77.50;;;;;;4952205;28;20398;-73
2022/01/14 09:21:16;;;;;;;75.68;31.65;;;4.30;68.90;;;;;;4952925;28;20415;-75
2022/01/14 09:23:43;;;;;;;97.20;36.10;;;4.30;67.10;;;;;;4955323;28;20460;-74
2022/01/14 09:26:09;;;;;;;90.88;37.80;;;4.10;70.30;;;;;;4946125;28;20838;-73
2022/01/14 09:28:35;;;;;;;98.50;37.33;;;4.10;73.40;;;;;;4941042;29;20500;-75
2022/01/14 09:31:00;;;;;;;95.72;38.20;;;4.20;72.30;;;;;;4953236;29;20895;-74
2022/01/14 09:33:26;;;;;;;93.20;35.87;;;4.30;73.00;;;;;;4952800;29;20467;-74
2022/01/14 09:35:52;;;;;;;90.88;36.55;;;4.50;69.50;;;;;;4951476;28;20409;-74
2022/01/14 09:38:18;;;;;;;89.43;35.97;;;4.50;65.90;;;;;;4952539;28;20405;-73
2022/01/14 09:40:49;;;;;;;83.78;35.42;;;4.50;67.10;;;;;;4952687;29;20413;-72
2022/01/14 09:43:15;;;;;;;73.55;32.47;;;4.50;67.10;;;;;;4949637;28;20831;-75
2022/01/14 09:45:40;;;;;;;71.78;28.95;;;4.60;65.80;;;;;;4953879;29;20489;-75
2022/01/14 09:48:06;;;;;;;69.85;28.23;;;4.50;64.40;;;;;;4954463;28;20429;-75
2022/01/14 09:50:33;;;;;;;60.60;28.05;;;4.30;66.90;;;;;;4958846;28;20464;-75
2022/01/14 09:52:59;;;;;;;82.70;30.20;;;4.20;69.20;;;;;;4968239;28;20424;-74
2022/01/14 09:55:24;;;;;;;59.85;28.23;;;4.20;71.80;;;;;;4964554;29;20402;-75
2022/01/14 09:57:54;;;;;;;70.40;28.83;;;4.10;70.90;;;;;;4956268;29;20457;-75
2022/01/14 10:00:19;;;;;;;61.92;29.15;;;4.10;71.80;;;;;;4954037;29;20406;-75
2022/01/14 10:02:45;;;;;;;61.90;28.63;;;4.00;74.20;;;;;;4951332;28;20959;-75
2022/01/14 10:05:32;;;;;;;64.97;29.50;;;4.10;75.50;;;;;;4957419;29;20424;-74
2022/01/14 10:08:21;;;;;;;72.90;30.70;;;4.20;74.40;;;;;;4963517;29;20493;-74
2022/01/14 10:10:59;;;;;;;61.53;29.27;;;4.20;76.40;;;;;;4964405;29;20421;-74
2022/01/14 10:13:35;;;;;;;69.80;30.20;;;4.20;77.70;;;;;;4971105;29;21139;-74
2022/01/14 10:16:08;;;;;;;76.50;29.70;;;4.10;78.60;;;;;;4953993;28;20485;-75
2022/01/14 10:18:36;;;;;;;69.75;29.33;;;4.20;79.70;;;;;;4965663;28;20433;-75
2022/01/14 10:21:07;;;;;;;68.68;32.55;;;4.20;80.70;;;;;;4972369;29;20429;-75
2022/01/14 10:23:45;;;;;;;73.30;30.98;;;4.30;79.60;;;;;;4954173;28;20476;-75
2022/01/14 10:26:12;;;;;;;71.90;31.47;;;4.20;79.70;;;;;;4954076;29;20469;-76
2022/01/14 10:28:39;;;;;;;70.00;31.60;;;4.20;80.80;;;;;;4952299;29;20513;-73
2022/01/14 10:31:08;;;;;;;83.55;33.10;;;4.20;82.30;;;;;;4956388;29;20782;-75
2022/01/14 10:33:33;;;;;;;75.65;32.22;;;4.30;82.80;;;;;;4953164;29;20460;-74
2022/01/14 10:35:59;;;;;;;90.80;32.00;;;4.40;80.00;;;;;;4952991;28;20413;-73
2022/01/14 10:38:28;;;;;;;100.47;34.87;;;4.40;78.90;;;;;;4954726;28;21104;-74
2022/01/14 10:40:56;;;;;;;86.20;35.60;;;4.30;80.20;;;;;;4984291;28;20388;-74
2022/01/14 10:43:31;;;;;;;76.75;33.70;;;4.30;81.70;;;;;;4982636;28;20440;-77
2022/01/14 10:45:57;;;;;;;86.63;34.50;;;4.40;82.70;;;;;;4969299;29;20456;-74
2022/01/14 10:48:46;;;;;;;83.45;35.28;;;4.50;83.00;;;;;;4965912;28;20402;-74
2022/01/14 10:51:16;;;;;;;91.32;37.28;;;4.50;83.10;;;;;;4966522;29;20913;-74
2022/01/14 10:53:51;;;;;;;105.60;35.35;;;4.40;82.60;;;;;;4969456;28;20417;-73
2022/01/14 10:56:19;;;;;;;97.57;34.40;;;4.50;84.50;;;;;;4966967;29;20394;-74
2022/01/14 10:58:47;;;;;;;105.15;38.47;;;4.60;82.50;;;;;;4959982;28;20386;-75
2022/01/14 11:01:18;;;;;;;94.55;36.60;;;4.60;81.10;;;;;;4954424;28;20756;-74
2022/01/14 11:03:53;;;;;;;104.57;39.20;;;4.60;81.10;;;;;;4955391;28;20872;-74
2022/01/14 11:06:33;;;;;;;124.40;39.40;;;4.60;81.50;;;;;;4958927;29;20510;-73
2022/01/14 11:09:05;;;;;;;114.07;39.65;;;4.60;82.20;;;;;;4964150;28;20401;-74
2022/01/14 11:11:42;;;;;;;116.43;38.75;;;4.60;81.00;;;;;;4958431;28;20432;-76
2022/01/14 11:14:08;;;;;;;109.78;39.80;;;4.70;80.40;;;;;;4959115;28;20424;-73
2022/01/14 11:16:35;;;;;;;112.60;40.77;;;4.70;81.40;;;;;;4957948;29;20910;-74
2022/01/14 11:19:02;;;;;;;98.75;40.72;;;4.80;80.90;;;;;;4958719;29;20579;-74
2022/01/14 11:24:15;;;;;;;115.28;41.55;;;4.90;76.60;;;;;;4954143;29;20890;-75
2022/01/14 11:26:43;;;;;;;119.03;38.80;;;5.00;76.00;;;;;;4955645;29;20448;-75
2022/01/14 11:29:12;;;;;;;119.30;40.70;;;4.80;75.10;;;;;;4955551;29;20397;-74
2022/01/14 11:31:40;;;;;;;118.40;41.65;;;4.80;77.50;;;;;;4954117;28;20421;-74
2022/01/14 11:34:30;;;;;;;119.05;41.55;;;4.80;78.00;;;;;;4954402;29;20418;-75
2022/01/14 11:36:58;;;;;;;124.70;43.17;;;4.80;78.40;;;;;;4934754;29;20407;-73
2022/01/14 11:39:31;;;;;;;120.55;42.47;;;4.90;80.30;;;;;;4936645;29;20402;-73
2022/01/14 11:42:00;;;;;;;120.57;44.35;;;5.00;79.00;;;;;;4937295;29;20400;-73
2022/01/14 11:44:44;;;;;;;115.30;41.65;;;5.10;76.00;;;;;;4951253;29;20409;-74
2022/01/14 11:47:41;;;;;;;110.97;40.20;;;5.20;74.00;;;;;;4955200;29;20390;-77
2022/01/14 11:50:30;;;;;;;119.53;41.88;;;5.10;74.90;;;;;;4947230;29;20453;-75
2022/01/14 11:52:58;;;;;;;112.55;41.00;;;5.10;75.10;;;;;;4957323;28;20426;-73
2022/01/14 11:55:23;;;;;;;114.53;42.72;;;5.00;76.10;;;;;;4975531;28;20381;-75
2022/01/14 11:57:57;;;;;;;111.57;40.15;;;5.00;75.40;;;;;;4977732;28;20399;-75
2022/01/14 12:00:37;;;;;;;113.18;40.85;;;5.00;76.90;;;;;;4976636;28;20419;-73
2022/01/14 12:03:15;;;;;;;115.03;41.30;;;5.00;77.50;;;;;;4958413;29;20386;-75
2022/01/14 12:05:54;;;;;;;115.10;40.88;;;5.00;75.30;;;;;;4961354;29;20464;-75
2022/01/14 12:08:22;;;;;;;109.60;40.70;;;5.00;73.50;;;;;;4940747;29;20400;-75
2022/01/14 12:10:57;;;;;;;120.03;42.25;;;5.00;74.50;;;;;;4939490;29;20742;-75
2022/01/14 12:16:09;;;;;;;126.93;42.60;;;5.00;76.20;;;;;;4936747;29;20857;-75
2022/01/14 12:18:56;;;;;;;129.52;44.05;;;5.00;76.20;;;;;;4951696;29;20851;-74
2022/01/14 12:21:44;;;;;;;125.80;42.80;;;5.00;76.10;;;;;;4956603;29;20394;-76
2022/01/14 12:24:18;;;;;;;132.40;44.23;;;5.00;75.00;;;;;;4956026;28;20422;-74
2022/01/14 12:27:08;;;;;;;135.10;43.42;;;5.00;75.50;;;;;;4955292;29;20740;-74
2022/01/14 12:29:44;;;;;;;140.52;44.10;;;5.10;74.40;;;;;;4956529;29;20737;-74
2022/01/14 12:32:32;;;;;;;130.57;44.85;;;5.10;74.70;;;;;;4955518;29;20879;-75
2022/01/14 12:35:00;;;;;;;128.13;44.75;;;5.00;75.60;;;;;;4958864;29;20417;-76
2022/01/14 12:37:35;;;;;;;137.10;44.38;;;5.00;76.00;;;;;;4959239;29;20398;-73
2022/01/14 12:40:14;;;;;;;113.65;43.63;;;5.00;76.50;;;;;;4975280;28;20399;-75
2022/01/14 12:42:46;;;;;;;129.60;43.65;;;5.00;76.40;;;;;;4939584;29;20400;-74
2022/01/14 12:46:11;;;;;;;124.95;44.13;;;5.00;76.00;;;;;;4936454;29;20407;-74
2022/01/14 12:48:40;;;;;;;114.40;40.50;;;5.00;76.80;;;;;;4937120;29;20417;-75
2022/01/14 12:51:08;;;;;;;124.18;42.42;;;5.10;77.60;;;;;;4954273;29;20401;-73
2022/01/14 12:53:35;;;;;;;124.90;43.55;;;5.20;75.30;;;;;;4962884;28;20411;-72
2022/01/14 12:56:03;;;;;;;132.45;43.00;;;5.10;74.60;;;;;;4974175;28;20435;-75
2022/01/14 12:58:49;;;;;;;125.83;42.23;;;5.10;74.40;;;;;;4973555;28;20483;-74
2022/01/14 13:01:14;;;;;;;123.43;41.72;;;5.10;75.10;;;;;;4956542;28;20473;-75
2022/01/14 13:03:40;;;;;;;142.50;44.13;;;5.10;74.20;;;;;;4954180;29;20438;-75
2022/01/14 13:06:05;;;;;;;132.02;44.25;;;5.10;74.70;;;;;;4954145;29;21885;-75
2022/01/14 13:08:31;;;;;;;128.37;42.37;;;5.10;74.40;;;;;;4955048;28;20898;-75
2022/01/14 13:11:04;;;;;;;133.10;44.20;;;5.20;74.80;;;;;;4955357;28;20417;-75
2022/01/14 13:13:30;;;;;;;136.82;43.35;;;5.20;74.20;;;;;;4960736;29;20417;-74
2022/01/14 13:16:06;;;;;;;122.57;43.83;;;5.30;73.90;;;;;;4961252;28;20444;-75
2022/01/14 13:18:43;;;;;;;131.02;44.50;;;5.30;73.20;;;;;;4959472;28;20488;-75